sensor_id;sensor_type;location;lat;lon;timestamp;pressure;altitude;pressure_sealevel;temperature;humidity
61086;BME280;46967;48.876;2.136;2023-01-15T00:00:37;100382.31;;;7.43;99.08
61086;BME280;46967;48.876;2.136;2023-01-15T00:03:03;100375.47;;;7.42;99.79
61086;BME280;46967;48.876;2.136;2023-01-15T00:05:28;100383.09;;;7.47;99.58
61086;BME280;46967;48.876;2.136;2023-01-15T00:07:53;100376.91;;;7.53;99.33
61086;BME280;46967;48.876;2.136;2023-01-15T00:10:19;100376.28;;;7.43;99.43
61086;BME280;46967;48.876;2.136;2023-01-15T00:12:44;100382.38;;;7.40;99.84
61086;BME280;46967;48.876;2.136;2023-01-15T00:15:10;100387.38;;;7.47;99.82
61086;BME280;46967;48.876;2.136;2023-01-15T00:17:35;100392.44;;;7.51;99.07
61086;BME280;46967;48.876;2.136;2023-01-15T00:20:01;100377.28;;;7.37;98.55
61086;BME280;46967;48.876;2.136;2023-01-15T00:22:27;100378.91;;;7.41;99.17
61086;BME280;46967;48.876;2.136;2023-01-15T00:24:52;100369.50;;;7.39;100.00
61086;BME280;46967;48.876;2.136;2023-01-15T00:27:36;100380.63;;;7.42;99.58
61086;BME280;46967;48.876;2.136;2023-01-15T00:30:07;100381.59;;;7.37;99.52
61086;BME280;46967;48.876;2.136;2023-01-15T00:32:33;100390.66;;;7.53;99.11
61086;BME280;46967;48.876;2.136;2023-01-15T00:34:58;100380.72;;;7.38;99.20
61086;BME280;46967;48.876;2.136;2023-01-15T00:37:24;100383.97;;;7.46;98.78
61086;BME280;46967;48.876;2.136;2023-01-15T00:39:50;100378.00;;;7.44;99.15
61086;BME280;46967;48.876;2.136;2023-01-15T00:42:16;100368.72;;;7.35;99.13
61086;BME280;46967;48.876;2.136;2023-01-15T00:44:42;100384.34;;;7.29;99.83
61086;BME280;46967;48.876;2.136;2023-01-15T00:47:07;100384.25;;;7.34;100.00
61086;BME280;46967;48.876;2.136;2023-01-15T00:49:38;100378.09;;;7.39;99.15
61086;BME280;46967;48.876;2.136;2023-01-15T00:52:03;100364.56;;;7.30;99.31
61086;BME280;46967;48.876;2.136;2023-01-15T00:54:29;100373.13;;;7.32;99.20
61086;BME280;46967;48.876;2.136;2023-01-15T00:56:54;100368.94;;;7.26;100.00
61086;BME280;46967;48.876;2.136;2023-01-15T00:59:20;100375.59;;;7.36;99.66
61086;BME280;46967;48.876;2.136;2023-01-15T01:01:45;100376.59;;;7.29;99.86
61086;BME280;46967;48.876;2.136;2023-01-15T01:04:10;100374.00;;;7.31;99.95
61086;BME280;46967;48.876;2.136;2023-01-15T01:06:36;100363.59;;;7.34;99.86
61086;BME280;46967;48.876;2.136;2023-01-15T01:09:03;100368.75;;;7.34;100.00
61086;BME280;46967;48.876;2.136;2023-01-15T01:11:29;100369.47;;;7.40;98.51
61086;BME280;46967;48.876;2.136;2023-01-15T01:13:58;100378.19;;;7.36;99.00
61086;BME280;46967;48.876;2.136;2023-01-15T01:16:26;100377.28;;;7.37;99.32
61086;BME280;46967;48.876;2.136;2023-01-15T01:18:54;100386.72;;;7.38;99.19
61086;BME280;46967;48.876;2.136;2023-01-15T01:21:20;100385.97;;;7.35;98.30
61086;BME280;46967;48.876;2.136;2023-01-15T01:23:46;100387.66;;;7.34;97.86
61086;BME280;46967;48.876;2.136;2023-01-15T01:26:12;100385.06;;;7.36;97.93
61086;BME280;46967;48.876;2.136;2023-01-15T01:28:38;100386.94;;;7.29;97.46
61086;BME280;46967;48.876;2.136;2023-01-15T01:31:05;100402.28;;;7.35;96.61
61086;BME280;46967;48.876;2.136;2023-01-15T01:33:30;100404.16;;;7.29;97.44
61086;BME280;46967;48.876;2.136;2023-01-15T01:35:55;100401.69;;;7.24;96.57
61086;BME280;46967;48.876;2.136;2023-01-15T01:38:21;100406.88;;;7.22;95.39
61086;BME280;46967;48.876;2.136;2023-01-15T01:40:46;100399.31;;;7.15;95.60
61086;BME280;46967;48.876;2.136;2023-01-15T01:43:19;100386.44;;;7.13;96.10
61086;BME280;46967;48.876;2.136;2023-01-15T01:45:45;100382.19;;;7.12;94.79
61086;BME280;46967;48.876;2.136;2023-01-15T01:48:11;100396.16;;;7.02;96.54
61086;BME280;46967;48.876;2.136;2023-01-15T01:50:38;100402.81;;;7.12;96.30
61086;BME280;46967;48.876;2.136;2023-01-15T01:53:13;100395.16;;;7.09;95.87
61086;BME280;46967;48.876;2.136;2023-01-15T01:55:41;100394.38;;;7.04;95.83
61086;BME280;46967;48.876;2.136;2023-01-15T01:58:09;100399.69;;;6.96;96.77
61086;BME280;46967;48.876;2.136;2023-01-15T02:00:37;100384.22;;;6.96;95.55
61086;BME280;46967;48.876;2.136;2023-01-15T02:03:06;100404.03;;;6.94;96.71
61086;BME280;46967;48.876;2.136;2023-01-15T02:05:37;100414.38;;;6.94;95.95
61086;BME280;46967;48.876;2.136;2023-01-15T02:08:05;100407.53;;;6.93;96.80
61086;BME280;46967;48.876;2.136;2023-01-15T02:10:31;100418.78;;;6.89;95.92
61086;BME280;46967;48.876;2.136;2023-01-15T02:13:01;100437.59;;;6.94;96.41
61086;BME280;46967;48.876;2.136;2023-01-15T02:15:35;100431.59;;;6.94;96.37
61086;BME280;46967;48.876;2.136;2023-01-15T02:20:39;100433.41;;;6.88;96.64
61086;BME280;46967;48.876;2.136;2023-01-15T02:23:25;100449.75;;;6.87;96.76
61086;BME280;46967;48.876;2.136;2023-01-15T02:26:34;100448.78;;;6.95;96.86
61086;BME280;46967;48.876;2.136;2023-01-15T02:29:00;100463.47;;;6.89;95.86
61086;BME280;46967;48.876;2.136;2023-01-15T02:31:31;100451.56;;;6.84;97.14
61086;BME280;46967;48.876;2.136;2023-01-15T02:34:03;100445.41;;;6.89;96.13
61086;BME280;46967;48.876;2.136;2023-01-15T02:36:32;100457.38;;;6.94;96.42
61086;BME280;46967;48.876;2.136;2023-01-15T02:39:02;100470.41;;;6.87;96.47
61086;BME280;46967;48.876;2.136;2023-01-15T02:41:40;100459.31;;;6.84;97.30
61086;BME280;46967;48.876;2.136;2023-01-15T02:44:09;100460.16;;;6.83;97.51
61086;BME280;46967;48.876;2.136;2023-01-15T02:46:37;100470.34;;;6.91;97.72
61086;BME280;46967;48.876;2.136;2023-01-15T02:49:05;100471.88;;;6.99;97.90
61086;BME280;46967;48.876;2.136;2023-01-15T02:51:37;100470.34;;;6.91;97.91
61086;BME280;46967;48.876;2.136;2023-01-15T02:54:05;100459.41;;;6.78;99.13
61086;BME280;46967;48.876;2.136;2023-01-15T02:56:34;100461.56;;;6.99;98.26
61086;BME280;46967;48.876;2.136;2023-01-15T02:59:05;100481.56;;;6.88;99.17
61086;BME280;46967;48.876;2.136;2023-01-15T03:01:57;100510.97;;;6.79;98.97
61086;BME280;46967;48.876;2.136;2023-01-15T03:04:37;100489.31;;;6.86;97.74
61086;BME280;46967;48.876;2.136;2023-01-15T03:07:17;100491.09;;;6.84;97.61
61086;BME280;46967;48.876;2.136;2023-01-15T03:09:47;100508.41;;;6.79;97.57
61086;BME280;46967;48.876;2.136;2023-01-15T03:12:54;100510.91;;;6.82;98.07
61086;BME280;46967;48.876;2.136;2023-01-15T03:18:35;100504.31;;;6.67;98.01
61086;BME280;46967;48.876;2.136;2023-01-15T03:21:05;100496.66;;;6.63;98.32
61086;BME280;46967;48.876;2.136;2023-01-15T03:23:35;100511.22;;;6.65;98.45
61086;BME280;46967;48.876;2.136;2023-01-15T03:26:02;100533.63;;;6.63;99.04
61086;BME280;46967;48.876;2.136;2023-01-15T03:28:32;100526.66;;;6.67;98.48
61086;BME280;46967;48.876;2.136;2023-01-15T03:30:59;100529.81;;;6.83;98.08
61086;BME280;46967;48.876;2.136;2023-01-15T03:33:24;100528.34;;;6.69;98.81
61086;BME280;46967;48.876;2.136;2023-01-15T03:35:56;100516.31;;;6.70;98.73
61086;BME280;46967;48.876;2.136;2023-01-15T03:38:25;100519.72;;;6.70;99.20
61086;BME280;46967;48.876;2.136;2023-01-15T03:54:54;100496.03;;;6.48;95.95
61086;BME280;46967;48.876;2.136;2023-01-15T03:57:29;100493.50;;;6.47;95.66
61086;BME280;46967;48.876;2.136;2023-01-15T03:59:59;100485.06;;;6.39;96.20
61086;BME280;46967;48.876;2.136;2023-01-15T04:02:26;100485.06;;;6.39;96.23
61086;BME280;46967;48.876;2.136;2023-01-15T04:04:54;100493.72;;;6.36;96.17
61086;BME280;46967;48.876;2.136;2023-01-15T04:07:22;100491.28;;;6.27;95.13
61086;BME280;46967;48.876;2.136;2023-01-15T04:09:48;100462.13;;;6.23;96.45
61086;BME280;46967;48.876;2.136;2023-01-15T04:12:14;100463.81;;;6.24;94.29
61086;BME280;46967;48.876;2.136;2023-01-15T04:14:39;100467.88;;;6.39;93.98
61086;BME280;46967;48.876;2.136;2023-01-15T04:17:05;100460.44;;;6.22;91.87
61086;BME280;46967;48.876;2.136;2023-01-15T04:19:30;100473.22;;;6.28;91.86
61086;BME280;46967;48.876;2.136;2023-01-15T04:21:55;100479.38;;;6.20;91.69
61086;BME280;46967;48.876;2.136;2023-01-15T04:24:21;100484.50;;;6.20;90.88
61086;BME280;46967;48.876;2.136;2023-01-15T04:26:46;100483.78;;;6.11;91.09
61086;BME280;46967;48.876;2.136;2023-01-15T04:29:11;100488.22;;;6.05;91.43
61086;BME280;46967;48.876;2.136;2023-01-15T04:31:37;100494.91;;;6.15;90.39
61086;BME280;46967;48.876;2.136;2023-01-15T04:34:03;100497.75;;;6.00;90.27
61086;BME280;46967;48.876;2.136;2023-01-15T04:36:28;100502.91;;;5.98;90.82
61086;BME280;46967;48.876;2.136;2023-01-15T04:38:54;100513.09;;;6.04;90.12
61086;BME280;46967;48.876;2.136;2023-01-15T04:41:21;100518.34;;;6.01;90.28
61086;BME280;46967;48.876;2.136;2023-01-15T04:44:05;100519.19;;;6.00;89.59
61086;BME280;46967;48.876;2.136;2023-01-15T04:46:31;100522.66;;;5.97;88.88
61086;BME280;46967;48.876;2.136;2023-01-15T04:48:57;100526.13;;;5.93;89.58
61086;BME280;46967;48.876;2.136;2023-01-15T04:51:22;100529.50;;;6.00;89.06
61086;BME280;46967;48.876;2.136;2023-01-15T04:53:48;100517.59;;;5.88;89.27
61086;BME280;46967;48.876;2.136;2023-01-15T04:56:13;100527.19;;;5.78;90.36
61086;BME280;46967;48.876;2.136;2023-01-15T04:58:39;100525.50;;;5.79;90.32
61086;BME280;46967;48.876;2.136;2023-01-15T05:01:15;100530.50;;;5.87;89.47
61086;BME280;46967;48.876;2.136;2023-01-15T05:03:41;100524.41;;;5.92;89.42
61086;BME280;46967;48.876;2.136;2023-01-15T05:06:08;100534.84;;;5.85;89.59
61086;BME280;46967;48.876;2.136;2023-01-15T05:08:33;100534.72;;;5.92;88.37
61086;BME280;46967;48.876;2.136;2023-01-15T05:11:04;100525.25;;;5.94;87.28
61086;BME280;46967;48.876;2.136;2023-01-15T05:13:30;100528.03;;;5.82;87.66
61086;BME280;46967;48.876;2.136;2023-01-15T05:16:27;100523.66;;;5.87;87.03
61086;BME280;46967;48.876;2.136;2023-01-15T05:18:53;100536.53;;;5.87;86.30
61086;BME280;46967;48.876;2.136;2023-01-15T05:21:26;100527.06;;;5.88;85.98
61086;BME280;46967;48.876;2.136;2023-01-15T05:23:54;100521.91;;;5.88;86.14
61086;BME280;46967;48.876;2.136;2023-01-15T05:26:21;100514.13;;;5.91;86.35
61086;BME280;46967;48.876;2.136;2023-01-15T05:28:47;100519.50;;;5.77;86.43
61086;BME280;46967;48.876;2.136;2023-01-15T05:31:18;100527.16;;;5.80;85.72
61086;BME280;46967;48.876;2.136;2023-01-15T05:33:44;100535.78;;;5.79;85.74
61086;BME280;46967;48.876;2.136;2023-01-15T05:36:12;100542.63;;;5.80;85.62
61086;BME280;46967;48.876;2.136;2023-01-15T05:38:39;100551.22;;;5.80;84.25
61086;BME280;46967;48.876;2.136;2023-01-15T05:41:06;100552.84;;;5.86;84.91
61086;BME280;46967;48.876;2.136;2023-01-15T05:43:52;100547.66;;;5.89;84.00
61086;BME280;46967;48.876;2.136;2023-01-15T05:46:17;100551.13;;;5.85;84.40
61086;BME280;46967;48.876;2.136;2023-01-15T05:48:43;100563.25;;;5.78;84.47
61086;BME280;46967;48.876;2.136;2023-01-15T05:51:08;100551.22;;;5.80;84.91
61086;BME280;46967;48.876;2.136;2023-01-15T05:53:33;100559.72;;;5.87;83.53
61086;BME280;46967;48.876;2.136;2023-01-15T05:56:02;100556.38;;;5.80;83.52
61086;BME280;46967;48.876;2.136;2023-01-15T05:58:27;100570.19;;;5.75;83.28
61086;BME280;46967;48.876;2.136;2023-01-15T06:00:53;100573.56;;;5.78;82.50
61086;BME280;46967;48.876;2.136;2023-01-15T06:09:55;100596.78;;;5.75;81.77
61086;BME280;46967;48.876;2.136;2023-01-15T06:12:21;100591.63;;;5.74;81.46
61086;BME280;46967;48.876;2.136;2023-01-15T06:14:46;100586.59;;;5.66;81.27
61086;BME280;46967;48.876;2.136;2023-01-15T06:17:11;100595.25;;;5.60;82.24
61086;BME280;46967;48.876;2.136;2023-01-15T06:19:39;100597.00;;;5.58;82.55
61086;BME280;46967;48.876;2.136;2023-01-15T06:22:04;100597.03;;;5.55;82.87
61086;BME280;46967;48.876;2.136;2023-01-15T06:24:29;100600.38;;;5.63;81.98
61086;BME280;46967;48.876;2.136;2023-01-15T06:26:55;100602.19;;;5.55;81.35
61086;BME280;46967;48.876;2.136;2023-01-15T06:29:20;100608.91;;;5.67;82.10
61086;BME280;46967;48.876;2.136;2023-01-15T06:31:45;100609.00;;;5.59;81.36
61086;BME280;46967;48.876;2.136;2023-01-15T06:34:11;100609.06;;;5.53;82.27
61086;BME280;46967;48.876;2.136;2023-01-15T06:36:37;100632.25;;;5.52;82.63
61086;BME280;46967;48.876;2.136;2023-01-15T06:39:02;100634.00;;;5.48;81.51
61086;BME280;46967;48.876;2.136;2023-01-15T06:41:28;100638.34;;;5.46;82.03
61086;BME280;46967;48.876;2.136;2023-01-15T06:44:14;100636.63;;;5.43;82.74
61086;BME280;46967;48.876;2.136;2023-01-15T06:47:01;100646.00;;;5.51;82.34
61086;BME280;46967;48.876;2.136;2023-01-15T06:49:52;100649.56;;;5.37;82.99
61086;BME280;46967;48.876;2.136;2023-01-15T06:52:18;100647.94;;;5.30;83.11
61086;BME280;46967;48.876;2.136;2023-01-15T06:54:44;100649.56;;;5.39;82.30
61086;BME280;46967;48.876;2.136;2023-01-15T06:57:09;100667.59;;;5.36;82.70
61086;BME280;46967;48.876;2.136;2023-01-15T06:59:34;100666.00;;;5.27;82.19
61086;BME280;46967;48.876;2.136;2023-01-15T07:02:00;100664.19;;;5.34;82.29
61086;BME280;46967;48.876;2.136;2023-01-15T07:04:25;100673.69;;;5.30;82.17
61086;BME280;46967;48.876;2.136;2023-01-15T07:06:51;100671.09;;;5.30;81.52
61086;BME280;46967;48.876;2.136;2023-01-15T07:09:16;100661.72;;;5.24;82.86
61086;BME280;46967;48.876;2.136;2023-01-15T07:11:41;100665.22;;;5.17;83.15
61086;BME280;46967;48.876;2.136;2023-01-15T07:14:16;100660.09;;;5.16;83.52
61086;BME280;46967;48.876;2.136;2023-01-15T07:16:42;100671.28;;;5.10;83.53
61086;BME280;46967;48.876;2.136;2023-01-15T07:19:07;100662.69;;;5.14;83.53
61086;BME280;46967;48.876;2.136;2023-01-15T07:21:33;100666.94;;;5.15;83.52
61086;BME280;46967;48.876;2.136;2023-01-15T07:23:58;100678.13;;;5.14;83.69
61086;BME280;46967;48.876;2.136;2023-01-15T07:26:24;100671.22;;;5.19;83.67
61086;BME280;46967;48.876;2.136;2023-01-15T07:28:50;100690.16;;;5.09;83.55
61086;BME280;46967;48.876;2.136;2023-01-15T07:31:15;100694.47;;;5.07;84.37
61086;BME280;46967;48.876;2.136;2023-01-15T07:33:40;100685.06;;;5.07;84.08
61086;BME280;46967;48.876;2.136;2023-01-15T07:36:06;100691.00;;;5.13;83.67
61086;BME280;46967;48.876;2.136;2023-01-15T07:38:31;100688.38;;;5.17;83.82
61086;BME280;46967;48.876;2.136;2023-01-15T07:40:58;100676.38;;;5.15;84.20
61086;BME280;46967;48.876;2.136;2023-01-15T07:43:42;100667.88;;;5.08;85.22
61086;BME280;46967;48.876;2.136;2023-01-15T07:46:26;100682.41;;;5.14;85.03
61086;BME280;46967;48.876;2.136;2023-01-15T07:49:11;100675.56;;;5.11;84.29
61086;BME280;46967;48.876;2.136;2023-01-15T07:51:55;100669.53;;;5.15;84.67
61086;BME280;46967;48.876;2.136;2023-01-15T07:54:20;100672.97;;;5.14;85.10
61086;BME280;46967;48.876;2.136;2023-01-15T07:56:45;100670.44;;;5.10;85.42
61086;BME280;46967;48.876;2.136;2023-01-15T07:59:11;100668.72;;;5.10;86.00
61086;BME280;46967;48.876;2.136;2023-01-15T08:01:37;100664.41;;;5.11;85.55
61086;BME280;46967;48.876;2.136;2023-01-15T08:04:02;100676.44;;;5.10;86.05
61086;BME280;46967;48.876;2.136;2023-01-15T08:06:27;100682.50;;;5.03;86.73
61086;BME280;46967;48.876;2.136;2023-01-15T08:08:53;100676.38;;;5.15;85.81
61086;BME280;46967;48.876;2.136;2023-01-15T08:11:18;100680.66;;;5.19;85.66
61086;BME280;46967;48.876;2.136;2023-01-15T08:14:02;100684.13;;;5.13;85.65
61086;BME280;46967;48.876;2.136;2023-01-15T08:16:46;100669.47;;;5.20;85.55
61086;BME280;46967;48.876;2.136;2023-01-15T08:19:11;100672.94;;;5.19;85.60
61086;BME280;46967;48.876;2.136;2023-01-15T08:21:36;100675.38;;;5.28;85.07
61086;BME280;46967;48.876;2.136;2023-01-15T08:24:02;100681.41;;;5.30;85.02
61086;BME280;46967;48.876;2.136;2023-01-15T08:26:27;100691.69;;;5.32;84.77
61086;BME280;46967;48.876;2.136;2023-01-15T08:28:53;100689.16;;;5.27;84.98
61086;BME280;46967;48.876;2.136;2023-01-15T08:31:18;100698.50;;;5.33;84.66
61086;BME280;46967;48.876;2.136;2023-01-15T08:33:43;100695.09;;;5.32;84.48
61086;BME280;46967;48.876;2.136;2023-01-15T08:36:09;100709.66;;;5.35;83.72
61086;BME280;46967;48.876;2.136;2023-01-15T08:38:34;100697.63;;;5.35;84.32
61086;BME280;46967;48.876;2.136;2023-01-15T08:40:59;100702.75;;;5.40;83.63
61086;BME280;46967;48.876;2.136;2023-01-15T08:43:26;100694.09;;;5.45;83.07
61086;BME280;46967;48.876;2.136;2023-01-15T08:45:58;100687.22;;;5.48;83.09
61086;BME280;46967;48.876;2.136;2023-01-15T08:48:24;100681.19;;;5.49;81.92
61086;BME280;46967;48.876;2.136;2023-01-15T08:50:49;100673.38;;;5.56;82.26
61086;BME280;46967;48.876;2.136;2023-01-15T08:53:16;100677.63;;;5.62;82.05
61086;BME280;46967;48.876;2.136;2023-01-15T08:55:43;100656.22;;;5.60;81.95
61086;BME280;46967;48.876;2.136;2023-01-15T08:58:08;100682.75;;;5.63;81.75
61086;BME280;46967;48.876;2.136;2023-01-15T09:00:34;100668.09;;;5.69;80.27
61086;BME280;46967;48.876;2.136;2023-01-15T09:02:59;100681.72;;;5.78;79.95
61086;BME280;46967;48.876;2.136;2023-01-15T09:05:24;100682.56;;;5.82;79.55
61086;BME280;46967;48.876;2.136;2023-01-15T09:07:52;100690.28;;;5.82;79.84
61086;BME280;46967;48.876;2.136;2023-01-15T09:10:17;100676.47;;;5.86;79.10
61086;BME280;46967;48.876;2.136;2023-01-15T09:12:43;100682.38;;;5.94;79.30
61086;BME280;46967;48.876;2.136;2023-01-15T09:15:09;100686.66;;;5.98;78.85
61086;BME280;46967;48.876;2.136;2023-01-15T09:17:34;100687.47;;;6.04;78.57
61086;BME280;46967;48.876;2.136;2023-01-15T09:20:04;100687.44;;;6.05;78.07
61086;BME280;46967;48.876;2.136;2023-01-15T09:22:30;100686.63;;;6.02;77.74
61086;BME280;46967;48.876;2.136;2023-01-15T09:24:55;100683.91;;;6.14;77.51
61086;BME280;46967;48.876;2.136;2023-01-15T09:27:21;100690.84;;;6.06;76.66
61086;BME280;46967;48.876;2.136;2023-01-15T09:29:46;100688.25;;;6.07;76.43
61086;BME280;46967;48.876;2.136;2023-01-15T09:32:11;100690.75;;;6.15;77.02
61086;BME280;46967;48.876;2.136;2023-01-15T09:34:37;100701.88;;;6.20;75.84
61086;BME280;46967;48.876;2.136;2023-01-15T09:37:02;100690.63;;;6.24;75.30
61086;BME280;46967;48.876;2.136;2023-01-15T09:39:27;100691.31;;;6.35;75.39
61086;BME280;46967;48.876;2.136;2023-01-15T09:45:11;100714.63;;;6.26;74.83
61086;BME280;46967;48.876;2.136;2023-01-15T09:47:59;100722.28;;;6.32;74.39
61086;BME280;46967;48.876;2.136;2023-01-15T09:50:34;100725.66;;;6.39;74.00
61086;BME280;46967;48.876;2.136;2023-01-15T09:56:00;100724.63;;;6.51;74.05
61086;BME280;46967;48.876;2.136;2023-01-15T09:58:32;100735.72;;;6.56;74.16
61086;BME280;46967;48.876;2.136;2023-01-15T10:00:59;100729.66;;;6.60;73.25
61086;BME280;46967;48.876;2.136;2023-01-15T10:06:11;100708.25;;;6.55;74.29
61086;BME280;46967;48.876;2.136;2023-01-15T10:08:43;100721.78;;;6.69;73.72
61086;BME280;46967;48.876;2.136;2023-01-15T10:14:05;100738.09;;;6.71;72.22
61086;BME280;46967;48.876;2.136;2023-01-15T10:16:33;100710.47;;;6.78;72.58
61086;BME280;46967;48.876;2.136;2023-01-15T10:18:59;100716.34;;;6.86;72.14
61086;BME280;46967;48.876;2.136;2023-01-15T10:24:05;100710.78;;;7.13;71.95
61086;BME280;46967;48.876;2.136;2023-01-15T10:40:45;100736.63;;;7.11;72.10
61086;BME280;46967;48.876;2.136;2023-01-15T10:45:58;100726.94;;;7.24;72.81
61086;BME280;46967;48.876;2.136;2023-01-15T10:48:38;100726.16;;;7.19;72.75
61086;BME280;46967;48.876;2.136;2023-01-15T10:51:28;100732.84;;;7.29;71.59
61086;BME280;46967;48.876;2.136;2023-01-15T10:59:24;100732.78;;;7.34;71.46
61086;BME280;46967;48.876;2.136;2023-01-15T11:01:53;100737.06;;;7.35;71.49
61086;BME280;46967;48.876;2.136;2023-01-15T11:04:19;100725.72;;;7.43;71.92
61086;BME280;46967;48.876;2.136;2023-01-15T11:06:45;100722.91;;;7.56;71.45
61086;BME280;46967;48.876;2.136;2023-01-15T11:09:22;100721.22;;;7.53;70.63
61086;BME280;46967;48.876;2.136;2023-01-15T11:12:04;100716.69;;;7.68;70.45
61086;BME280;46967;48.876;2.136;2023-01-15T11:14:43;100707.41;;;7.56;70.58
61086;BME280;46967;48.876;2.136;2023-01-15T11:17:35;100712.03;;;7.40;70.50
61086;BME280;46967;48.876;2.136;2023-01-15T11:20:42;100712.69;;;7.50;70.09
61086;BME280;46967;48.876;2.136;2023-01-15T11:23:11;100705.69;;;7.56;69.82
61086;BME280;46967;48.876;2.136;2023-01-15T11:25:38;100689.25;;;7.60;69.68
61086;BME280;46967;48.876;2.136;2023-01-15T11:28:09;100697.13;;;7.54;69.98
61086;BME280;46967;48.876;2.136;2023-01-15T11:30:39;100713.66;;;7.46;69.09
61086;BME280;46967;48.876;2.136;2023-01-15T11:33:22;100697.44;;;7.37;69.48
61086;BME280;46967;48.876;2.136;2023-01-15T11:35:59;100696.38;;;7.49;69.78
61086;BME280;46967;48.876;2.136;2023-01-15T11:38:27;100697.06;;;7.57;68.74
61086;BME280;46967;48.876;2.136;2023-01-15T11:40:55;100694.34;;;7.65;69.44
61086;BME280;46967;48.876;2.136;2023-01-15T11:43:24;100691.44;;;7.82;68.23
61086;BME280;46967;48.876;2.136;2023-01-15T11:49:15;100699.91;;;7.89;67.55
61086;BME280;46967;48.876;2.136;2023-01-15T11:52:00;100696.94;;;8.07;67.55
61086;BME280;46967;48.876;2.136;2023-01-15T11:54:28;100689.28;;;8.03;66.65
61086;BME280;46967;48.876;2.136;2023-01-15T11:56:57;100702.81;;;8.15;66.41
61086;BME280;46967;48.876;2.136;2023-01-15T11:59:22;100682.31;;;8.06;66.67
61086;BME280;46967;48.876;2.136;2023-01-15T12:01:52;100696.53;;;8.26;66.36
61086;BME280;46967;48.876;2.136;2023-01-15T12:04:32;100685.66;;;8.11;65.43
61086;BME280;46967;48.876;2.136;2023-01-15T12:06:59;100680.13;;;8.28;66.30
61086;BME280;46967;48.876;2.136;2023-01-15T12:12:32;100669.09;;;8.59;64.95
61086;BME280;46967;48.876;2.136;2023-01-15T12:15:26;100664.25;;;8.81;64.54
61086;BME280;46967;48.876;2.136;2023-01-15T12:23:44;100640.41;;;9.36;62.37
61086;BME280;46967;48.876;2.136;2023-01-15T12:26:29;100656.31;;;9.22;62.46
61086;BME280;46967;48.876;2.136;2023-01-15T12:31:48;100644.34;;;9.18;63.48
61086;BME280;46967;48.876;2.136;2023-01-15T12:36:48;100621.53;;;9.31;62.71
61086;BME280;46967;48.876;2.136;2023-01-15T12:39:20;100633.50;;;9.03;63.71
61086;BME280;46967;48.876;2.136;2023-01-15T12:41:56;100618.06;;;8.99;63.00
61086;BME280;46967;48.876;2.136;2023-01-15T12:44:45;100629.22;;;9.02;62.32
61086;BME280;46967;48.876;2.136;2023-01-15T12:47:50;100622.44;;;8.97;63.04
61086;BME280;46967;48.876;2.136;2023-01-15T12:50:26;100610.38;;;8.96;63.51
61086;BME280;46967;48.876;2.136;2023-01-15T12:55:28;100603.47;;;8.98;62.68
61086;BME280;46967;48.876;2.136;2023-01-15T12:57:57;100599.19;;;8.95;61.70
61086;BME280;46967;48.876;2.136;2023-01-15T13:00:28;100595.41;;;9.07;61.08
61086;BME280;46967;48.876;2.136;2023-01-15T13:05:29;100589.84;;;8.89;62.38
61086;BME280;46967;48.876;2.136;2023-01-15T13:11:12;100586.50;;;8.86;61.62
61086;BME280;46967;48.876;2.136;2023-01-15T13:13:40;100589.16;;;8.83;61.68
61086;BME280;46967;48.876;2.136;2023-01-15T13:21:35;100562.75;;;8.70;60.93
61086;BME280;46967;48.876;2.136;2023-01-15T13:26:57;100564.84;;;8.90;61.13
61086;BME280;46967;48.876;2.136;2023-01-15T13:32:38;100573.75;;;9.11;60.17
61086;BME280;46967;48.876;2.136;2023-01-15T13:37:48;100560.88;;;9.08;60.98
61086;BME280;46967;48.876;2.136;2023-01-15T13:40:34;100576.47;;;9.06;60.75
61086;BME280;46967;48.876;2.136;2023-01-15T13:43:04;100574.31;;;8.89;61.51
61086;BME280;46967;48.876;2.136;2023-01-15T13:45:41;100567.34;;;8.93;61.62
61086;BME280;46967;48.876;2.136;2023-01-15T13:51:05;100570.19;;;8.82;61.79
61086;BME280;46967;48.876;2.136;2023-01-15T13:53:39;100549.50;;;8.82;61.38
61086;BME280;46967;48.876;2.136;2023-01-15T13:56:11;100539.22;;;8.79;61.81
61086;BME280;46967;48.876;2.136;2023-01-15T13:58:54;100567.94;;;8.70;61.63
61086;BME280;46967;48.876;2.136;2023-01-15T14:01:41;100544.56;;;8.73;61.78
61086;BME280;46967;48.876;2.136;2023-01-15T14:04:12;100541.97;;;8.73;62.96
61086;BME280;46967;48.876;2.136;2023-01-15T14:06:47;100532.97;;;8.55;61.70
61086;BME280;46967;48.876;2.136;2023-01-15T14:34:22;100539.38;;;9.06;61.12
61086;BME280;46967;48.876;2.136;2023-01-15T14:45:06;100524.50;;;8.81;61.49
61086;BME280;46967;48.876;2.136;2023-01-15T14:47:57;100538.91;;;8.92;61.63
61086;BME280;46967;48.876;2.136;2023-01-15T14:50:32;100537.63;;;8.74;61.77
61086;BME280;46967;48.876;2.136;2023-01-15T14:55:42;100536.38;;;8.90;61.85
61086;BME280;46967;48.876;2.136;2023-01-15T14:58:29;100519.91;;;8.91;61.90
61086;BME280;46967;48.876;2.136;2023-01-15T15:01:11;100529.53;;;8.87;62.41
61086;BME280;46967;48.876;2.136;2023-01-15T15:03:44;100529.03;;;8.73;62.62
61086;BME280;46967;48.876;2.136;2023-01-15T15:06:13;100518.97;;;8.62;63.03
61086;BME280;46967;48.876;2.136;2023-01-15T15:08:40;100502.03;;;8.50;63.57
61086;BME280;46967;48.876;2.136;2023-01-15T15:11:14;100511.72;;;8.44;63.44
61086;BME280;46967;48.876;2.136;2023-01-15T15:14:05;100511.72;;;8.42;62.97
61086;BME280;46967;48.876;2.136;2023-01-15T15:16:34;100501.47;;;8.38;62.78
61086;BME280;46967;48.876;2.136;2023-01-15T15:19:20;100494.56;;;8.38;63.03
61086;BME280;46967;48.876;2.136;2023-01-15T15:21:49;100492.16;;;8.30;63.73
61086;BME280;46967;48.876;2.136;2023-01-15T15:24:33;100487.34;;;8.16;64.25
61086;BME280;46967;48.876;2.136;2023-01-15T15:27:19;100490.47;;;8.29;63.86
61086;BME280;46967;48.876;2.136;2023-01-15T15:29:46;100487.78;;;8.32;64.17
61086;BME280;46967;48.876;2.136;2023-01-15T15:32:16;100488.84;;;8.25;64.08
61086;BME280;46967;48.876;2.136;2023-01-15T15:34:44;100485.63;;;8.17;64.34
61086;BME280;46967;48.876;2.136;2023-01-15T15:37:24;100474.34;;;8.20;63.98